sensor_id;sensor_type;location;lat;lon;timestamp;temperature;humidity
72756;SHT30;60881;55.002;73.232;2022-10-20T00:02:25;7.39;76.74
72756;SHT30;60881;55.002;73.232;2022-10-20T00:05:02;7.40;76.78
72756;SHT30;60881;55.002;73.232;2022-10-20T00:07:34;7.36;76.41
72756;SHT30;60881;55.002;73.232;2022-10-20T00:10:02;7.33;76.68
72756;SHT30;60881;55.002;73.232;2022-10-20T00:12:29;7.24;77.01
72756;SHT30;60881;55.002;73.232;2022-10-20T00:15:00;7.23;77.16
72756;SHT30;60881;55.002;73.232;2022-10-20T00:17:28;7.20;77.06
72756;SHT30;60881;55.002;73.232;2022-10-20T00:19:54;7.22;77.20
72756;SHT30;60881;55.002;73.232;2022-10-20T00:22:25;7.23;77.42
72756;SHT30;60881;55.002;73.232;2022-10-20T00:25:02;7.18;77.33
72756;SHT30;60881;55.002;73.232;2022-10-20T00:27:33;7.22;77.07
72756;SHT30;60881;55.002;73.232;2022-10-20T00:30:03;7.26;76.57
72756;SHT30;60881;55.002;73.232;2022-10-20T00:32:30;7.26;76.73
72756;SHT30;60881;55.002;73.232;2022-10-20T00:35:02;7.20;76.78
72756;SHT30;60881;55.002;73.232;2022-10-20T00:37:35;7.19;77.00
72756;SHT30;60881;55.002;73.232;2022-10-20T00:40:09;7.16;77.16
72756;SHT30;60881;55.002;73.232;2022-10-20T00:42:37;7.12;77.13
72756;SHT30;60881;55.002;73.232;2022-10-20T00:45:11;7.13;77.09
72756;SHT30;60881;55.002;73.232;2022-10-20T00:47:45;7.06;77.11
72756;SHT30;60881;55.002;73.232;2022-10-20T00:50:18;7.08;77.70
72756;SHT30;60881;55.002;73.232;2022-10-20T00:52:58;7.12;77.09
72756;SHT30;60881;55.002;73.232;2022-10-20T00:55:34;7.18;77.30
72756;SHT30;60881;55.002;73.232;2022-10-20T00:58:02;7.27;77.15
72756;SHT30;60881;55.002;73.232;2022-10-20T01:00:29;7.26;76.78
72756;SHT30;60881;55.002;73.232;2022-10-20T01:02:58;7.23;76.92
72756;SHT30;60881;55.002;73.232;2022-10-20T01:05:27;7.19;77.00
72756;SHT30;60881;55.002;73.232;2022-10-20T01:07:54;7.20;76.89
72756;SHT30;60881;55.002;73.232;2022-10-20T01:10:22;7.16;77.13
72756;SHT30;60881;55.002;73.232;2022-10-20T01:13:03;7.18;76.87
72756;SHT30;60881;55.002;73.232;2022-10-20T01:15:43;7.20;76.65
72756;SHT30;60881;55.002;73.232;2022-10-20T01:22:00;7.09;77.12
72756;SHT30;60881;55.002;73.232;2022-10-20T01:29:54;7.11;77.53
72756;SHT30;60881;55.002;73.232;2022-10-20T01:40:31;7.11;77.65
72756;SHT30;60881;55.002;73.232;2022-10-20T01:43:03;7.05;77.50
72756;SHT30;60881;55.002;73.232;2022-10-20T01:45:33;7.03;77.92
72756;SHT30;60881;55.002;73.232;2022-10-20T01:48:05;7.00;77.82
72756;SHT30;60881;55.002;73.232;2022-10-20T01:50:33;6.99;78.17
72756;SHT30;60881;55.002;73.232;2022-10-20T01:53:01;6.98;77.99
72756;SHT30;60881;55.002;73.232;2022-10-20T01:55:28;6.98;78.02
72756;SHT30;60881;55.002;73.232;2022-10-20T02:00:47;7.08;77.74
72756;SHT30;60881;55.002;73.232;2022-10-20T02:08:38;7.22;77.06
72756;SHT30;60881;55.002;73.232;2022-10-20T02:11:15;7.23;77.30
72756;SHT30;60881;55.002;73.232;2022-10-20T02:13:43;7.27;76.86
72756;SHT30;60881;55.002;73.232;2022-10-20T02:16:15;7.24;76.76
72756;SHT30;60881;55.002;73.232;2022-10-20T02:18:43;7.24;76.73
72756;SHT30;60881;55.002;73.232;2022-10-20T02:21:12;7.27;77.09
72756;SHT30;60881;55.002;73.232;2022-10-20T02:23:43;7.24;76.57
72756;SHT30;60881;55.002;73.232;2022-10-20T02:26:22;7.27;76.99
72756;SHT30;60881;55.002;73.232;2022-10-20T02:28:59;7.29;76.54
72756;SHT30;60881;55.002;73.232;2022-10-20T02:31:26;7.26;76.77
72756;SHT30;60881;55.002;73.232;2022-10-20T02:33:56;7.33;76.53
72756;SHT30;60881;55.002;73.232;2022-10-20T02:36:28;7.16;76.48
72756;SHT30;60881;55.002;73.232;2022-10-20T02:38:55;7.12;76.88
72756;SHT30;60881;55.002;73.232;2022-10-20T02:41:22;6.99;77.18
72756;SHT30;60881;55.002;73.232;2022-10-20T02:43:53;6.95;77.78
72756;SHT30;60881;55.002;73.232;2022-10-20T02:46:21;7.00;77.56
72756;SHT30;60881;55.002;73.232;2022-10-20T02:48:48;6.95;77.61
72756;SHT30;60881;55.002;73.232;2022-10-20T02:51:23;6.93;77.91
72756;SHT30;60881;55.002;73.232;2022-10-20T02:54:01;6.93;77.75
72756;SHT30;60881;55.002;73.232;2022-10-20T02:56:27;6.88;78.05
72756;SHT30;60881;55.002;73.232;2022-10-20T02:58:54;6.87;77.90
72756;SHT30;60881;55.002;73.232;2022-10-20T03:01:21;6.87;77.82
72756;SHT30;60881;55.002;73.232;2022-10-20T03:03:50;6.82;77.95
72756;SHT30;60881;55.002;73.232;2022-10-20T03:06:20;6.75;78.17
72756;SHT30;60881;55.002;73.232;2022-10-20T03:08:49;6.78;78.44
72756;SHT30;60881;55.002;73.232;2022-10-20T03:11:18;6.81;78.17
72756;SHT30;60881;55.002;73.232;2022-10-20T03:13:48;6.84;78.23
72756;SHT30;60881;55.002;73.232;2022-10-20T03:16:15;6.85;78.06
72756;SHT30;60881;55.002;73.232;2022-10-20T03:18:42;6.88;77.91
72756;SHT30;60881;55.002;73.232;2022-10-20T03:21:08;6.91;77.92
72756;SHT30;60881;55.002;73.232;2022-10-20T03:23:35;6.95;77.62
72756;SHT30;60881;55.002;73.232;2022-10-20T03:26:05;7.02;78.05
72756;SHT30;60881;55.002;73.232;2022-10-20T03:28:32;7.05;77.63
72756;SHT30;60881;55.002;73.232;2022-10-20T03:30:59;6.96;77.20
72756;SHT30;60881;55.002;73.232;2022-10-20T03:33:27;6.98;77.47
72756;SHT30;60881;55.002;73.232;2022-10-20T03:35:56;6.95;77.70
72756;SHT30;60881;55.002;73.232;2022-10-20T03:38:25;6.96;77.62
72756;SHT30;60881;55.002;73.232;2022-10-20T03:40:51;6.98;77.78
72756;SHT30;60881;55.002;73.232;2022-10-20T03:43:18;6.95;77.74
72756;SHT30;60881;55.002;73.232;2022-10-20T03:45:45;6.99;77.54
72756;SHT30;60881;55.002;73.232;2022-10-20T03:48:12;6.96;77.70
72756;SHT30;60881;55.002;73.232;2022-10-20T03:50:41;6.98;77.65
72756;SHT30;60881;55.002;73.232;2022-10-20T03:53:19;7.02;77.21
72756;SHT30;60881;55.002;73.232;2022-10-20T03:55:45;7.03;77.82
72756;SHT30;60881;55.002;73.232;2022-10-20T03:58:11;7.06;77.48
72756;SHT30;60881;55.002;73.232;2022-10-20T04:00:38;6.98;77.70
72756;SHT30;60881;55.002;73.232;2022-10-20T04:03:04;6.96;77.42
72756;SHT30;60881;55.002;73.232;2022-10-20T04:05:31;6.93;77.54
72756;SHT30;60881;55.002;73.232;2022-10-20T04:07:57;7.05;77.45
72756;SHT30;60881;55.002;73.232;2022-10-20T04:10:25;7.15;77.10
72756;SHT30;60881;55.002;73.232;2022-10-20T04:12:52;7.13;77.17
72756;SHT30;60881;55.002;73.232;2022-10-20T04:15:25;7.08;77.14
72756;SHT30;60881;55.002;73.232;2022-10-20T04:17:51;7.05;76.95
72756;SHT30;60881;55.002;73.232;2022-10-20T04:20:18;7.02;77.06
72756;SHT30;60881;55.002;73.232;2022-10-20T04:22:48;7.03;77.07
72756;SHT30;60881;55.002;73.232;2022-10-20T04:25:15;7.03;77.09
72756;SHT30;60881;55.002;73.232;2022-10-20T04:27:42;7.05;77.05
72756;SHT30;60881;55.002;73.232;2022-10-20T04:30:10;7.06;77.05
72756;SHT30;60881;55.002;73.232;2022-10-20T04:32:37;7.09;76.98
72756;SHT30;60881;55.002;73.232;2022-10-20T04:35:09;7.12;76.88
72756;SHT30;60881;55.002;73.232;2022-10-20T04:37:36;7.24;76.49
72756;SHT30;60881;55.002;73.232;2022-10-20T04:40:04;7.20;76.49
72756;SHT30;60881;55.002;73.232;2022-10-20T04:42:31;7.33;76.04
72756;SHT30;60881;55.002;73.232;2022-10-20T04:44:58;7.37;76.23
72756;SHT30;60881;55.002;73.232;2022-10-20T04:47:30;7.40;75.84
72756;SHT30;60881;55.002;73.232;2022-10-20T04:49:57;7.40;75.67
72756;SHT30;60881;55.002;73.232;2022-10-20T04:52:24;7.43;75.96
72756;SHT30;60881;55.002;73.232;2022-10-20T04:54:52;7.39;75.28
72756;SHT30;60881;55.002;73.232;2022-10-20T04:57:19;7.37;75.75
72756;SHT30;60881;55.002;73.232;2022-10-20T04:59:46;7.33;75.61
72756;SHT30;60881;55.002;73.232;2022-10-20T05:02:13;7.49;75.40
72756;SHT30;60881;55.002;73.232;2022-10-20T05:04:48;7.50;75.23
72756;SHT30;60881;55.002;73.232;2022-10-20T05:07:28;7.56;75.21
72756;SHT30;60881;55.002;73.232;2022-10-20T05:09:55;7.62;74.99
72756;SHT30;60881;55.002;73.232;2022-10-20T05:12:22;7.66;74.83
72756;SHT30;60881;55.002;73.232;2022-10-20T05:14:49;7.77;74.60
72756;SHT30;60881;55.002;73.232;2022-10-20T05:17:16;7.87;74.11
72756;SHT30;60881;55.002;73.232;2022-10-20T05:19:42;7.79;73.96
72756;SHT30;60881;55.002;73.232;2022-10-20T05:22:10;7.62;74.16
72756;SHT30;60881;55.002;73.232;2022-10-20T05:24:37;7.60;74.81
72756;SHT30;60881;55.002;73.232;2022-10-20T05:27:03;7.53;75.16
72756;SHT30;60881;55.002;73.232;2022-10-20T05:29:30;7.45;75.63
72756;SHT30;60881;55.002;73.232;2022-10-20T05:31:56;7.59;74.75
72756;SHT30;60881;55.002;73.232;2022-10-20T05:34:23;7.69;74.75
72756;SHT30;60881;55.002;73.232;2022-10-20T05:36:52;7.57;74.65
72756;SHT30;60881;55.002;73.232;2022-10-20T05:39:19;7.60;74.78
72756;SHT30;60881;55.002;73.232;2022-10-20T05:41:45;7.69;74.66
72756;SHT30;60881;55.002;73.232;2022-10-20T05:44:22;7.76;74.42
72756;SHT30;60881;55.002;73.232;2022-10-20T05:46:49;7.84;74.32
72756;SHT30;60881;55.002;73.232;2022-10-20T05:49:16;7.89;73.67
72756;SHT30;60881;55.002;73.232;2022-10-20T05:51:44;7.91;73.61
72756;SHT30;60881;55.002;73.232;2022-10-20T05:54:12;8.05;73.01
72756;SHT30;60881;55.002;73.232;2022-10-20T05:56:39;8.11;72.98
72756;SHT30;60881;55.002;73.232;2022-10-20T05:59:07;8.20;73.03
72756;SHT30;60881;55.002;73.232;2022-10-20T06:01:34;8.30;72.26
72756;SHT30;60881;55.002;73.232;2022-10-20T06:04:07;8.28;71.92
72756;SHT30;60881;55.002;73.232;2022-10-20T06:06:34;8.24;72.47
72756;SHT30;60881;55.002;73.232;2022-10-20T06:09:05;8.27;71.60
72756;SHT30;60881;55.002;73.232;2022-10-20T06:11:33;8.25;71.64
72756;SHT30;60881;55.002;73.232;2022-10-20T06:14:01;8.42;71.22
72756;SHT30;60881;55.002;73.232;2022-10-20T06:16:29;8.37;71.55
72756;SHT30;60881;55.002;73.232;2022-10-20T06:18:58;8.42;71.40
72756;SHT30;60881;55.002;73.232;2022-10-20T06:21:27;8.40;71.08
72756;SHT30;60881;55.002;73.232;2022-10-20T06:24:00;8.27;71.31
72756;SHT30;60881;55.002;73.232;2022-10-20T06:26:31;8.23;71.55
72756;SHT30;60881;55.002;73.232;2022-10-20T06:28:59;8.25;71.19
72756;SHT30;60881;55.002;73.232;2022-10-20T06:31:40;8.34;70.90
72756;SHT30;60881;55.002;73.232;2022-10-20T06:34:09;8.37;70.66
72756;SHT30;60881;55.002;73.232;2022-10-20T06:36:43;8.30;70.73
72756;SHT30;60881;55.002;73.232;2022-10-20T06:39:17;8.45;69.66
72756;SHT30;60881;55.002;73.232;2022-10-20T06:41:51;8.48;69.66
72756;SHT30;60881;55.002;73.232;2022-10-20T06:44:20;8.51;70.30
72756;SHT30;60881;55.002;73.232;2022-10-20T06:46:47;8.45;68.62
72756;SHT30;60881;55.002;73.232;2022-10-20T06:49:14;8.54;69.11
72756;SHT30;60881;55.002;73.232;2022-10-20T06:51:41;8.71;68.92
72756;SHT30;60881;55.002;73.232;2022-10-20T06:54:11;8.78;68.73
72756;SHT30;60881;55.002;73.232;2022-10-20T06:56:39;8.76;68.39
72756;SHT30;60881;55.002;73.232;2022-10-20T06:59:08;8.73;68.57
72756;SHT30;60881;55.002;73.232;2022-10-20T07:01:41;8.76;68.62
72756;SHT30;60881;55.002;73.232;2022-10-20T07:04:13;8.81;68.68
72756;SHT30;60881;55.002;73.232;2022-10-20T07:06:42;8.78;68.57
72756;SHT30;60881;55.002;73.232;2022-10-20T07:09:13;8.81;68.45
72756;SHT30;60881;55.002;73.232;2022-10-20T07:11:40;8.67;68.90
72756;SHT30;60881;55.002;73.232;2022-10-20T07:14:08;8.52;69.45
72756;SHT30;60881;55.002;73.232;2022-10-20T07:16:35;8.48;69.55
72756;SHT30;60881;55.002;73.232;2022-10-20T07:19:03;8.47;69.83
72756;SHT30;60881;55.002;73.232;2022-10-20T07:21:30;8.55;69.44
72756;SHT30;60881;55.002;73.232;2022-10-20T07:23:59;8.62;69.01
72756;SHT30;60881;55.002;73.232;2022-10-20T07:26:29;8.71;68.10
72756;SHT30;60881;55.002;73.232;2022-10-20T07:28:59;8.72;67.65
72756;SHT30;60881;55.002;73.232;2022-10-20T07:31:34;8.76;66.92
72756;SHT30;60881;55.002;73.232;2022-10-20T07:34:02;8.78;66.86
72756;SHT30;60881;55.002;73.232;2022-10-20T07:36:31;8.71;66.73
72756;SHT30;60881;55.002;73.232;2022-10-20T07:39:05;8.85;67.42
72756;SHT30;60881;55.002;73.232;2022-10-20T07:41:34;8.96;67.01
72756;SHT30;60881;55.002;73.232;2022-10-20T07:44:02;9.01;66.07
72756;SHT30;60881;55.002;73.232;2022-10-20T07:46:30;9.02;65.71
72756;SHT30;60881;55.002;73.232;2022-10-20T07:48:57;9.08;64.91
72756;SHT30;60881;55.002;73.232;2022-10-20T07:51:29;9.09;65.11
72756;SHT30;60881;55.002;73.232;2022-10-20T07:54:08;9.13;64.71
72756;SHT30;60881;55.002;73.232;2022-10-20T07:56:40;9.08;65.15
72756;SHT30;60881;55.002;73.232;2022-10-20T07:59:08;9.18;65.38
72756;SHT30;60881;55.002;73.232;2022-10-20T08:01:35;9.25;65.30
72756;SHT30;60881;55.002;73.232;2022-10-20T08:04:03;9.35;65.05
72756;SHT30;60881;55.002;73.232;2022-10-20T08:06:32;9.46;65.58
72756;SHT30;60881;55.002;73.232;2022-10-20T08:08:58;9.40;63.99
72756;SHT30;60881;55.002;73.232;2022-10-20T08:11:26;9.46;64.14
72756;SHT30;60881;55.002;73.232;2022-10-20T08:13:53;9.44;63.43
72756;SHT30;60881;55.002;73.232;2022-10-20T08:16:20;9.37;63.77
72756;SHT30;60881;55.002;73.232;2022-10-20T08:18:47;9.27;64.71
72756;SHT30;60881;55.002;73.232;2022-10-20T08:21:20;9.25;64.66
72756;SHT30;60881;55.002;73.232;2022-10-20T08:23:48;9.26;64.38
72756;SHT30;60881;55.002;73.232;2022-10-20T08:26:23;9.20;63.87
72756;SHT30;60881;55.002;73.232;2022-10-20T08:28:52;9.27;64.20
72756;SHT30;60881;55.002;73.232;2022-10-20T08:31:20;9.36;64.10
72756;SHT30;60881;55.002;73.232;2022-10-20T08:33:46;9.39;64.29
72756;SHT30;60881;55.002;73.232;2022-10-20T08:36:16;9.37;63.96
72756;SHT30;60881;55.002;73.232;2022-10-20T08:38:43;9.37;64.32
72756;SHT30;60881;55.002;73.232;2022-10-20T08:41:27;9.46;63.87
72756;SHT30;60881;55.002;73.232;2022-10-20T08:43:56;9.49;63.64
72756;SHT30;60881;55.002;73.232;2022-10-20T08:46:43;9.42;63.31
72756;SHT30;60881;55.002;73.232;2022-10-20T08:49:27;9.36;64.08
72756;SHT30;60881;55.002;73.232;2022-10-20T08:51:54;9.26;64.52
72756;SHT30;60881;55.002;73.232;2022-10-20T08:54:21;9.22;64.89
72756;SHT30;60881;55.002;73.232;2022-10-20T08:56:48;9.22;64.65
72756;SHT30;60881;55.002;73.232;2022-10-20T08:59:31;9.18;65.41
72756;SHT30;60881;55.002;73.232;2022-10-20T09:02:01;9.02;65.69
72756;SHT30;60881;55.002;73.232;2022-10-20T09:04:34;9.06;65.59
72756;SHT30;60881;55.002;73.232;2022-10-20T09:07:08;9.06;65.39
72756;SHT30;60881;55.002;73.232;2022-10-20T09:09:36;9.18;65.26
72756;SHT30;60881;55.002;73.232;2022-10-20T09:12:09;9.30;64.74
72756;SHT30;60881;55.002;73.232;2022-10-20T09:14:40;9.29;64.99
72756;SHT30;60881;55.002;73.232;2022-10-20T09:17:14;9.35;64.50
72756;SHT30;60881;55.002;73.232;2022-10-20T09:19:50;9.30;64.70
72756;SHT30;60881;55.002;73.232;2022-10-20T09:22:21;9.23;64.65
72756;SHT30;60881;55.002;73.232;2022-10-20T09:24:50;9.16;64.98
72756;SHT30;60881;55.002;73.232;2022-10-20T09:27:36;9.08;64.56
72756;SHT30;60881;55.002;73.232;2022-10-20T09:32:54;9.06;65.02
72756;SHT30;60881;55.002;73.232;2022-10-20T09:35:29;9.03;65.77
72756;SHT30;60881;55.002;73.232;2022-10-20T09:40:43;8.96;65.96
72756;SHT30;60881;55.002;73.232;2022-10-20T09:43:15;8.93;65.76
72756;SHT30;60881;55.002;73.232;2022-10-20T09:45:52;8.89;65.85
72756;SHT30;60881;55.002;73.232;2022-10-20T09:48:39;8.95;65.76
72756;SHT30;60881;55.002;73.232;2022-10-20T09:51:22;8.91;66.23
72756;SHT30;60881;55.002;73.232;2022-10-20T09:54:05;8.99;66.50
72756;SHT30;60881;55.002;73.232;2022-10-20T09:56:38;9.02;66.20
72756;SHT30;60881;55.002;73.232;2022-10-20T09:59:35;8.95;66.90
72756;SHT30;60881;55.002;73.232;2022-10-20T10:02:27;8.86;67.07
72756;SHT30;60881;55.002;73.232;2022-10-20T10:05:19;8.95;67.60
72756;SHT30;60881;55.002;73.232;2022-10-20T10:07:58;8.92;67.54
72756;SHT30;60881;55.002;73.232;2022-10-20T10:10:29;8.92;67.89
72756;SHT30;60881;55.002;73.232;2022-10-20T10:12:59;9.06;67.15
72756;SHT30;60881;55.002;73.232;2022-10-20T10:15:33;9.08;67.25
72756;SHT30;60881;55.002;73.232;2022-10-20T10:18:14;9.06;67.68
72756;SHT30;60881;55.002;73.232;2022-10-20T10:20:57;9.02;68.22
72756;SHT30;60881;55.002;73.232;2022-10-20T10:23:26;9.01;68.17
72756;SHT30;60881;55.002;73.232;2022-10-20T10:25:54;9.08;68.35
72756;SHT30;60881;55.002;73.232;2022-10-20T10:28:38;9.02;68.11
72756;SHT30;60881;55.002;73.232;2022-10-20T10:31:18;9.09;68.14
72756;SHT30;60881;55.002;73.232;2022-10-20T10:36:40;9.09;68.29
72756;SHT30;60881;55.002;73.232;2022-10-20T10:39:12;9.03;68.29
72756;SHT30;60881;55.002;73.232;2022-10-20T10:45:00;9.13;68.86
72756;SHT30;60881;55.002;73.232;2022-10-20T10:47:36;9.20;68.41
72756;SHT30;60881;55.002;73.232;2022-10-20T10:53:26;9.26;68.37
72756;SHT30;60881;55.002;73.232;2022-10-20T10:56:28;9.23;68.48
72756;SHT30;60881;55.002;73.232;2022-10-20T10:59:04;9.16;68.58
72756;SHT30;60881;55.002;73.232;2022-10-20T11:07:20;9.15;68.69
72756;SHT30;60881;55.002;73.232;2022-10-20T11:15:31;9.03;69.07
72756;SHT30;60881;55.002;73.232;2022-10-20T11:26:27;9.06;69.82
72756;SHT30;60881;55.002;73.232;2022-10-20T11:28:57;9.03;69.87
72756;SHT30;60881;55.002;73.232;2022-10-20T11:34:32;9.03;70.44
72756;SHT30;60881;55.002;73.232;2022-10-20T11:37:21;9.03;70.64
72756;SHT30;60881;55.002;73.232;2022-10-20T11:39:56;9.01;70.75
72756;SHT30;60881;55.002;73.232;2022-10-20T11:42:44;9.02;71.23
72756;SHT30;60881;55.002;73.232;2022-10-20T11:45:48;8.99;72.30
72756;SHT30;60881;55.002;73.232;2022-10-20T12:12:51;8.58;74.85
72756;SHT30;60881;55.002;73.232;2022-10-20T12:15:23;8.55;75.13
72756;SHT30;60881;55.002;73.232;2022-10-20T12:17:54;8.55;75.15
72756;SHT30;60881;55.002;73.232;2022-10-20T12:22:54;8.52;75.34
72756;SHT30;60881;55.002;73.232;2022-10-20T12:31:01;8.59;75.26
72756;SHT30;60881;55.002;73.232;2022-10-20T12:33:58;8.62;75.16
72756;SHT30;60881;55.002;73.232;2022-10-20T12:36:31;8.61;75.11
72756;SHT30;60881;55.002;73.232;2022-10-20T12:42:01;8.54;75.62
72756;SHT30;60881;55.002;73.232;2022-10-20T12:44:39;8.52;75.41
72756;SHT30;60881;55.002;73.232;2022-10-20T12:47:07;8.45;75.68
72756;SHT30;60881;55.002;73.232;2022-10-20T12:49:39;8.35;75.87
72756;SHT30;60881;55.002;73.232;2022-10-20T12:52:17;8.34;75.88
72756;SHT30;60881;55.002;73.232;2022-10-20T12:54:52;8.30;76.11
72756;SHT30;60881;55.002;73.232;2022-10-20T12:57:32;8.23;76.25
72756;SHT30;60881;55.002;73.232;2022-10-20T13:00:05;8.13;76.75
72756;SHT30;60881;55.002;73.232;2022-10-20T13:02:54;8.05;76.99
72756;SHT30;60881;55.002;73.232;2022-10-20T13:05:40;7.97;77.26
72756;SHT30;60881;55.002;73.232;2022-10-20T13:08:35;7.90;77.39
72756;SHT30;60881;55.002;73.232;2022-10-20T13:11:50;7.89;77.60
72756;SHT30;60881;55.002;73.232;2022-10-20T13:19:53;7.83;77.60
72756;SHT30;60881;55.002;73.232;2022-10-20T13:22:46;7.81;77.50
72756;SHT30;60881;55.002;73.232;2022-10-20T13:25:33;7.79;77.48
72756;SHT30;60881;55.002;73.232;2022-10-20T13:34:14;7.71;77.89
72756;SHT30;60881;55.002;73.232;2022-10-20T13:37:04;7.71;77.79
72756;SHT30;60881;55.002;73.232;2022-10-20T13:42:40;7.74;77.45
72756;SHT30;60881;55.002;73.232;2022-10-20T13:48:14;7.70;77.53
72756;SHT30;60881;55.002;73.232;2022-10-20T13:50:52;7.70;77.20
72756;SHT30;60881;55.002;73.232;2022-10-20T13:53:26;7.73;77.19
72756;SHT30;60881;55.002;73.232;2022-10-20T13:56:04;7.80;76.59
72756;SHT30;60881;55.002;73.232;2022-10-20T13:58:32;7.81;76.75
72756;SHT30;60881;55.002;73.232;2022-10-20T14:01:05;7.76;76.51
72756;SHT30;60881;55.002;73.232;2022-10-20T14:03:44;7.73;76.52
72756;SHT30;60881;55.002;73.232;2022-10-20T14:06:38;7.62;76.49
72756;SHT30;60881;55.002;73.232;2022-10-20T14:09:11;7.63;76.40
72756;SHT30;60881;55.002;73.232;2022-10-20T14:11:40;7.57;76.43
72756;SHT30;60881;55.002;73.232;2022-10-20T14:14:12;7.50;76.97
72756;SHT30;60881;55.002;73.232;2022-10-20T14:16:53;7.39;76.69
72756;SHT30;60881;55.002;73.232;2022-10-20T14:19:34;7.36;77.22
72756;SHT30;60881;55.002;73.232;2022-10-20T14:24:46;7.24;76.91
72756;SHT30;60881;55.002;73.232;2022-10-20T14:27:18;7.15;77.38
72756;SHT30;60881;55.002;73.232;2022-10-20T14:29:52;7.11;77.40
72756;SHT30;60881;55.002;73.232;2022-10-20T14:32:26;7.00;77.57
72756;SHT30;60881;55.002;73.232;2022-10-20T14:37:54;6.85;77.79
72756;SHT30;60881;55.002;73.232;2022-10-20T14:40:26;6.81;77.79
72756;SHT30;60881;55.002;73.232;2022-10-20T14:43:01;6.72;77.86
72756;SHT30;60881;55.002;73.232;2022-10-20T14:45:29;6.75;77.79
72756;SHT30;60881;55.002;73.232;2022-10-20T14:48:14;6.82;77.42
72756;SHT30;60881;55.002;73.232;2022-10-20T14:50:42;6.76;77.65
72756;SHT30;60881;55.002;73.232;2022-10-20T14:55:54;6.64;77.99
72756;SHT30;60881;55.002;73.232;2022-10-20T14:58:37;6.65;77.89
72756;SHT30;60881;55.002;73.232;2022-10-20T15:01:25;6.59;77.88
72756;SHT30;60881;55.002;73.232;2022-10-20T15:04:16;6.48;78.13
72756;SHT30;60881;55.002;73.232;2022-10-20T15:06:48;6.45;78.13
72756;SHT30;60881;55.002;73.232;2022-10-20T15:09:37;6.45;78.01
72756;SHT30;60881;55.002;73.232;2022-10-20T15:14:48;6.46;77.92
72756;SHT30;60881;55.002;73.232;2022-10-20T15:20:33;6.45;77.70
72756;SHT30;60881;55.002;73.232;2022-10-20T15:23:09;6.42;77.76
72756;SHT30;60881;55.002;73.232;2022-10-20T15:28:29;6.38;77.73
72756;SHT30;60881;55.002;73.232;2022-10-20T15:30:59;6.42;77.61
72756;SHT30;60881;55.002;73.232;2022-10-20T15:33:30;6.44;77.67
72756;SHT30;60881;55.002;73.232;2022-10-20T15:35:56;6.42;77.51
72756;SHT30;60881;55.002;73.232;2022-10-20T15:38:26;6.44;77.47
72756;SHT30;60881;55.002;73.232;2022-10-20T15:40:53;6.40;77.66
72756;SHT30;60881;55.002;73.232;2022-10-20T15:43:24;6.37;77.78
72756;SHT30;60881;55.002;73.232;2022-10-20T15:45:52;6.34;78.07
72756;SHT30;60881;55.002;73.232;2022-10-20T15:48:21;6.42;77.88
72756;SHT30;60881;55.002;73.232;2022-10-20T15:50:56;6.44;77.79
72756;SHT30;60881;55.002;73.232;2022-10-20T15:53:25;6.52;77.57
72756;SHT30;60881;55.002;73.232;2022-10-20T15:55:52;6.55;77.72
72756;SHT30;60881;55.002;73.232;2022-10-20T15:58:24;6.58;77.28
72756;SHT30;60881;55.002;73.232;2022-10-20T16:00:56;6.65;77.10
72756;SHT30;60881;55.002;73.232;2022-10-20T16:03:23;6.65;76.94
72756;SHT30;60881;55.002;73.232;2022-10-20T16:05:49;6.69;77.00
72756;SHT30;60881;55.002;73.232;2022-10-20T16:08:16;6.75;76.76
72756;SHT30;60881;55.002;73.232;2022-10-20T16:10:44;6.76;76.83
72756;SHT30;60881;55.002;73.232;2022-10-20T16:13:11;6.76;76.87
72756;SHT30;60881;55.002;73.232;2022-10-20T16:15:38;6.76;76.69
72756;SHT30;60881;55.002;73.232;2022-10-20T16:18:05;6.76;76.67
72756;SHT30;60881;55.002;73.232;2022-10-20T16:20:33;6.81;76.62
72756;SHT30;60881;55.002;73.232;2022-10-20T16:22:59;6.85;76.48
72756;SHT30;60881;55.002;73.232;2022-10-20T16:25:26;6.93;76.43
72756;SHT30;60881;55.002;73.232;2022-10-20T16:27:53;6.99;75.79
72756;SHT30;60881;55.002;73.232;2022-10-20T16:30:29;7.02;75.67
72756;SHT30;60881;55.002;73.232;2022-10-20T16:32:56;7.06;75.72
72756;SHT30;60881;55.002;73.232;2022-10-20T16:35:23;7.05;75.53
72756;SHT30;60881;55.002;73.232;2022-10-20T16:37:50;6.99;75.76
72756;SHT30;60881;55.002;73.232;2022-10-20T16:40:16;7.00;75.68
72756;SHT30;60881;55.002;73.232;2022-10-20T16:42:44;7.09;75.55
72756;SHT30;60881;55.002;73.232;2022-10-20T16:45:16;7.02;75.89
72756;SHT30;60881;55.002;73.232;2022-10-20T16:47:42;7.03;75.51
72756;SHT30;60881;55.002;73.232;2022-10-20T16:50:11;7.00;75.49
72756;SHT30;60881;55.002;73.232;2022-10-20T16:52:37;6.93;75.64
72756;SHT30;60881;55.002;73.232;2022-10-20T16:55:05;6.88;75.99
72756;SHT30;60881;55.002;73.232;2022-10-20T16:57:37;6.78;76.35
72756;SHT30;60881;55.002;73.232;2022-10-20T17:00:06;6.69;76.69
72756;SHT30;60881;55.002;73.232;2022-10-20T17:02:35;6.64;77.04
72756;SHT30;60881;55.002;73.232;2022-10-20T17:05:03;6.58;76.98
72756;SHT30;60881;55.002;73.232;2022-10-20T17:07:31;6.56;77.40
72756;SHT30;60881;55.002;73.232;2022-10-20T17:09:57;6.56;77.01
72756;SHT30;60881;55.002;73.232;2022-10-20T17:12:23;6.51;77.34
72756;SHT30;60881;55.002;73.232;2022-10-20T17:14:59;6.55;77.75
72756;SHT30;60881;55.002;73.232;2022-10-20T17:17:37;6.55;77.29
72756;SHT30;60881;55.002;73.232;2022-10-20T17:20:04;6.55;77.52
72756;SHT30;60881;55.002;73.232;2022-10-20T17:22:31;6.58;77.45
72756;SHT30;60881;55.002;73.232;2022-10-20T17:24:57;6.64;77.02
72756;SHT30;60881;55.002;73.232;2022-10-20T17:27:24;6.63;77.16
72756;SHT30;60881;55.002;73.232;2022-10-20T17:29:51;6.71;77.03
72756;SHT30;60881;55.002;73.232;2022-10-20T17:32:28;6.74;76.99
72756;SHT30;60881;55.002;73.232;2022-10-20T17:34:54;6.68;77.17
72756;SHT30;60881;55.002;73.232;2022-10-20T17:37:25;6.64;77.46
72756;SHT30;60881;55.002;73.232;2022-10-20T17:39:51;6.55;77.73
72756;SHT30;60881;55.002;73.232;2022-10-20T17:42:20;6.52;77.80
72756;SHT30;60881;55.002;73.232;2022-10-20T17:44:50;6.44;78.02
72756;SHT30;60881;55.002;73.232;2022-10-20T17:47:18;6.45;78.23
72756;SHT30;60881;55.002;73.232;2022-10-20T17:49:45;6.42;78.16
72756;SHT30;60881;55.002;73.232;2022-10-20T17:52:12;6.34;78.49
72756;SHT30;60881;55.002;73.232;2022-10-20T17:54:39;6.31;78.69
72756;SHT30;60881;55.002;73.232;2022-10-20T17:57:06;6.34;78.65
72756;SHT30;60881;55.002;73.232;2022-10-20T17:59:32;6.41;78.49
72756;SHT30;60881;55.002;73.232;2022-10-20T18:01:58;6.44;78.14
72756;SHT30;60881;55.002;73.232;2022-10-20T18:04:25;6.45;77.85
72756;SHT30;60881;55.002;73.232;2022-10-20T18:06:51;6.40;78.06
72756;SHT30;60881;55.002;73.232;2022-10-20T18:09:19;6.34;78.10
72756;SHT30;60881;55.002;73.232;2022-10-20T18:11:48;6.25;78.52